Time;durP1;ratioP1;P1;durP2;ratioP2;P2;SDS_P1;SDS_P2;PMS_P1;PMS_P2;Temp;Humidity;BMP_temperature;BMP_pressure;BME280_temperature;BME280_humidity;BME280_pressure;Samples;Min_cycle;Max_cycle;Signal;HPM_P1;HPM_P2
2023/04/07 05:53:38;;;;;;;12.63;8.32;;;8.50;99.90;;;;;;7080096;23;20058;-79
2023/04/07 05:56:40;;;;;;;13.73;8.55;;;8.50;99.90;;;;;;6194787;28;20042;-77
2023/04/07 05:59:42;;;;;;;12.63;8.50;;;8.50;99.90;;;;;;6200199;28;20046;-79
2023/04/07 06:02:44;;;;;;;14.10;8.48;;;8.60;99.90;;;;;;6195936;28;20046;-80
2023/04/07 06:05:46;;;;;;;12.98;9.00;;;8.60;99.90;;;;;;6200737;28;20496;-77
2023/04/07 06:08:49;;;;;;;12.57;8.02;;;8.60;99.90;;;;;;6189540;28;20137;-78
2023/04/07 06:11:51;;;;;;;11.65;7.60;;;8.70;99.90;;;;;;6207269;28;20053;-79
2023/04/07 06:14:54;;;;;;;12.70;8.18;;;8.70;99.90;;;;;;6203323;28;20051;-78
2023/04/07 06:17:56;;;;;;;11.93;8.43;;;8.70;99.90;;;;;;6186198;28;20054;-79
2023/04/07 06:20:58;;;;;;;14.02;8.85;;;8.80;99.90;;;;;;6203227;28;20050;-77
2023/04/07 06:24:01;;;;;;;12.45;8.45;;;8.80;99.90;;;;;;6198901;28;20047;-77
2023/04/07 06:27:03;;;;;;;12.30;8.60;;;8.80;99.90;;;;;;6186547;28;20047;-78
2023/04/07 06:30:07;;;;;;;14.00;9.02;;;8.70;99.90;;;;;;6189100;28;20043;-77
2023/04/07 06:33:09;;;;;;;;;;;8.70;99.90;;;;;;6191106;28;20500;-78
2023/04/07 06:36:11;;;;;;;15.55;8.70;;;8.80;99.90;;;;;;6201196;28;19929;-78
2023/04/07 06:39:14;;;;;;;14.25;9.20;;;8.80;99.90;;;;;;6198320;28;20061;-80
2023/04/07 06:42:16;;;;;;;13.63;8.98;;;8.70;99.90;;;;;;6192731;28;20484;-77
2023/04/07 06:45:18;;;;;;;14.77;9.15;;;8.80;99.90;;;;;;6191621;28;20101;-78
2023/04/07 06:48:20;;;;;;;14.48;8.90;;;8.90;99.90;;;;;;6200855;28;20422;-80
2023/04/07 06:51:22;;;;;;;13.88;8.98;;;8.90;99.90;;;;;;6198721;28;20062;-80
2023/04/07 06:54:25;;;;;;;13.75;9.27;;;9.00;99.90;;;;;;6191778;28;20061;-78
2023/04/07 06:57:27;;;;;;;13.07;8.90;;;8.80;99.90;;;;;;6181533;28;20484;-79
2023/04/07 07:00:29;;;;;;;12.98;8.50;;;8.80;99.90;;;;;;6177178;28;20043;-78
2023/04/07 07:03:32;;;;;;;14.77;9.75;;;9.00;99.90;;;;;;6178344;28;20125;-78
2023/04/07 07:06:34;;;;;;;13.57;9.10;;;9.10;99.90;;;;;;6193758;28;20053;-78
2023/04/07 07:09:37;;;;;;;13.45;9.25;;;9.30;99.90;;;;;;6200528;28;20046;-78
2023/04/07 07:12:39;;;;;;;12.73;8.65;;;9.30;99.90;;;;;;6201178;28;20503;-80
2023/04/07 07:15:40;;;;;;;15.25;8.90;;;9.40;99.90;;;;;;6199112;28;20423;-79
2023/04/07 07:18:42;;;;;;;13.50;8.70;;;9.50;99.90;;;;;;6190637;28;20045;-78
2023/04/07 07:21:44;;;;;;;12.80;9.25;;;9.60;99.90;;;;;;6200750;28;20098;-77
2023/04/07 07:24:48;;;;;;;21.65;12.82;;;9.70;99.90;;;;;;6197967;28;20496;-77
2023/04/07 07:27:52;;;;;;;15.82;10.23;;;9.80;99.90;;;;;;6198611;28;20042;-77
2023/04/07 07:30:53;;;;;;;13.43;9.18;;;9.80;99.90;;;;;;6196529;28;20050;-78
2023/04/07 07:33:56;;;;;;;13.30;8.70;;;9.90;99.90;;;;;;6191599;28;20072;-81
2023/04/07 07:36:58;;;;;;;12.40;8.30;;;9.90;99.90;;;;;;6193928;28;20046;-81
2023/04/07 07:40:04;;;;;;;13.45;8.38;;;9.90;99.90;;;;;;6195284;28;20109;-82
2023/04/07 07:43:08;;;;;;;12.02;8.45;;;9.90;99.90;;;;;;6177472;28;20057;-78
2023/04/07 07:46:10;;;;;;;;;;;9.90;99.90;;;;;;6199490;28;20050;-81
2023/04/07 07:49:12;;;;;;;12.20;8.40;;;10.10;99.90;;;;;;6199906;28;20282;-80
2023/04/07 07:52:14;;;;;;;12.52;8.90;;;10.20;99.90;;;;;;6200684;28;20507;-79
2023/04/07 07:55:17;;;;;;;12.15;8.35;;;10.30;99.90;;;;;;6195263;28;20139;-80
2023/04/07 07:58:19;;;;;;;11.43;8.27;;;10.30;99.90;;;;;;6200152;28;20100;-81
2023/04/07 08:01:21;;;;;;;12.20;7.95;;;10.50;99.90;;;;;;6200889;28;20053;-80
2023/04/07 08:04:23;;;;;;;10.90;7.57;;;10.70;99.90;;;;;;6197302;28;20404;-79
2023/04/07 08:07:26;;;;;;;10.40;6.97;;;10.80;99.10;;;;;;6178718;28;20051;-80
2023/04/07 08:10:29;;;;;;;11.13;6.60;;;10.80;98.60;;;;;;6189434;28;20050;-80
2023/04/07 08:13:31;;;;;;;8.98;6.00;;;11.00;98.20;;;;;;6194704;28;20043;-80
2023/04/07 08:16:33;;;;;;;8.48;5.88;;;11.10;96.70;;;;;;6187030;28;20053;-80
2023/04/07 08:19:35;;;;;;;10.40;7.00;;;11.00;96.70;;;;;;6202516;28;20381;-80
2023/04/07 08:22:37;;;;;;;9.07;6.22;;;11.20;97.70;;;;;;6182668;28;20050;-79
2023/04/07 08:25:40;;;;;;;8.52;6.32;;;11.20;97.50;;;;;;6186250;28;20047;-79
2023/04/07 08:28:42;;;;;;;8.77;5.82;;;11.20;97.40;;;;;;6175253;28;20404;-77
2023/04/07 08:31:44;;;;;;;8.02;5.32;;;11.10;96.90;;;;;;6175443;28;20051;-81
2023/04/07 08:34:46;;;;;;;6.75;4.45;;;11.20;96.40;;;;;;6188768;28;20526;-82
2023/04/07 08:37:49;;;;;;;9.35;5.20;;;11.00;96.40;;;;;;6195375;28;20046;-85
2023/04/07 08:41:01;;;;;;;7.23;5.30;;;11.10;96.90;;;;;;6199207;28;20082;-79
2023/04/07 08:44:04;;;;;;;8.48;5.72;;;11.20;96.10;;;;;;6198679;28;20492;-79
2023/04/07 08:47:10;;;;;;;9.18;4.90;;;11.20;96.20;;;;;;6194830;28;20448;-79
2023/04/07 08:50:12;;;;;;;8.32;5.18;;;11.10;96.30;;;;;;6196878;28;20381;-78
2023/04/07 08:53:19;;;;;;;8.43;5.03;;;11.00;96.40;;;;;;6197342;28;20050;-78
2023/04/07 08:56:23;;;;;;;7.90;5.00;;;11.00;96.70;;;;;;6201217;28;20070;-78
2023/04/07 08:59:28;;;;;;;;;;;11.10;96.70;;;;;;6195000;28;20042;-78
2023/04/07 09:02:33;;;;;;;8.73;4.47;;;11.30;96.20;;;;;;6202764;28;19953;-77
2023/04/07 09:05:35;;;;;;;7.72;5.00;;;11.50;95.70;;;;;;6203728;28;20096;-78
2023/04/07 09:08:37;;;;;;;7.97;5.53;;;11.60;95.90;;;;;;6200867;28;20054;-78
2023/04/07 09:11:41;;;;;;;9.00;5.40;;;11.70;95.50;;;;;;6201443;28;20043;-78
2023/04/07 09:14:44;;;;;;;12.75;5.50;;;11.80;95.60;;;;;;6202016;28;20057;-79
2023/04/07 09:17:46;;;;;;;;;;;12.10;95.60;;;;;;6199660;28;20057;-76
2023/04/07 09:21:00;;;;;;;6.65;4.13;;;12.10;94.40;;;;;;6204046;28;19928;-76
2023/04/07 09:24:20;;;;;;;7.38;4.07;;;12.20;94.30;;;;;;6200293;28;20100;-79
2023/04/07 09:27:24;;;;;;;7.07;4.30;;;12.10;94.30;;;;;;6202513;28;20458;-80
2023/04/07 09:30:26;;;;;;;7.82;4.18;;;12.00;94.30;;;;;;6200773;28;20053;-80
2023/04/07 09:33:29;;;;;;;11.05;4.50;;;11.50;94.90;;;;;;6189631;28;20046;-78
2023/04/07 09:36:42;;;;;;;7.00;4.13;;;11.50;95.00;;;;;;6193817;28;20046;-76
2023/04/07 09:39:52;;;;;;;6.43;4.18;;;11.70;94.80;;;;;;6192070;28;20484;-79
2023/04/07 09:42:57;;;;;;;7.68;4.70;;;11.90;94.50;;;;;;6190652;28;20053;-77
2023/04/07 09:46:11;;;;;;;10.68;4.78;;;12.00;94.00;;;;;;6191456;28;20157;-79
2023/04/07 09:49:13;;;;;;;8.02;3.72;;;12.40;93.90;;;;;;6188106;28;20047;-78
2023/04/07 09:52:19;;;;;;;9.32;4.25;;;12.20;93.30;;;;;;6198845;28;20046;-77
2023/04/07 09:55:23;;;;;;;7.55;3.92;;;12.50;93.80;;;;;;6201101;28;20113;-80
2023/04/07 09:58:28;;;;;;;7.43;3.97;;;12.50;94.00;;;;;;6199632;28;20054;-79
2023/04/07 10:01:30;;;;;;;7.40;4.22;;;12.90;93.90;;;;;;6201551;28;20065;-80
2023/04/07 10:04:33;;;;;;;7.68;4.18;;;13.00;93.60;;;;;;6194242;28;20050;-79
2023/04/07 10:07:35;;;;;;;8.38;4.10;;;13.20;92.50;;;;;;6199984;28;20050;-79
2023/04/07 10:10:42;;;;;;;8.00;3.95;;;13.20;92.20;;;;;;6202670;28;20057;-79
2023/04/07 10:13:46;;;;;;;6.85;3.60;;;13.30;92.50;;;;;;6201703;28;20054;-77
2023/04/07 10:16:48;;;;;;;;;;;13.50;92.20;;;;;;6185452;28;20047;-78
2023/04/07 10:19:51;;;;;;;7.35;3.90;;;13.50;91.70;;;;;;6181390;28;19932;-78
2023/04/07 10:22:55;;;;;;;9.98;4.07;;;13.30;92.70;;;;;;6194657;28;20761;-77
2023/04/07 10:25:59;;;;;;;6.07;3.63;;;13.40;92.30;;;;;;6198075;28;20144;-78
2023/04/07 10:29:08;;;;;;;6.65;3.88;;;13.50;92.20;;;;;;6184234;28;20057;-77
2023/04/07 10:32:11;;;;;;;7.25;3.85;;;13.50;91.20;;;;;;6199623;28;20046;-78
2023/04/07 10:35:13;;;;;;;6.88;4.05;;;13.60;92.00;;;;;;6187496;28;20078;-81
2023/04/07 10:38:15;;;;;;;7.25;4.00;;;13.60;91.50;;;;;;6188092;28;20050;-79
2023/04/07 10:41:35;;;;;;;7.25;4.05;;;13.90;90.90;;;;;;6195717;28;20061;-78
2023/04/07 10:44:52;;;;;;;7.78;3.63;;;14.10;90.10;;;;;;6195722;28;20807;-79
2023/04/07 10:48:11;;;;;;;8.05;3.47;;;14.20;89.60;;;;;;6195155;28;20096;-77
2023/04/07 10:51:16;;;;;;;8.07;3.80;;;14.10;90.20;;;;;;6186159;28;20049;-77
2023/04/07 10:54:25;;;;;;;11.80;5.30;;;14.00;90.10;;;;;;6193173;28;20420;-80
2023/04/07 10:57:27;;;;;;;10.13;4.95;;;14.00;90.00;;;;;;6186701;28;20077;-77
2023/04/07 11:00:30;;;;;;;6.88;3.75;;;14.10;89.10;;;;;;6185008;28;20597;-80
2023/04/07 11:03:34;;;;;;;6.93;2.92;;;13.80;90.00;;;;;;6172039;28;20704;-79
2023/04/07 11:06:46;;;;;;;6.68;2.80;;;14.00;89.00;;;;;;6195179;28;20053;-79
2023/04/07 11:09:50;;;;;;;6.72;2.30;;;14.00;88.00;;;;;;6197415;28;20046;-77
2023/04/07 11:13:08;;;;;;;6.68;2.60;;;14.00;87.80;;;;;;6197138;28;20415;-79
2023/04/07 11:16:14;;;;;;;8.13;2.85;;;14.40;84.70;;;;;;6196872;28;20062;-79
2023/04/07 11:19:16;;;;;;;7.20;3.22;;;14.40;85.50;;;;;;6183773;28;20074;-80
2023/04/07 11:22:18;;;;;;;7.72;2.90;;;14.20;86.40;;;;;;6178437;28;20054;-80
2023/04/07 11:25:26;;;;;;;6.32;3.13;;;14.30;84.40;;;;;;6197101;28;20050;-80
2023/04/07 11:28:29;;;;;;;6.32;3.75;;;14.20;85.00;;;;;;6197881;28;20061;-78
2023/04/07 11:31:32;;;;;;;9.88;4.70;;;14.30;86.00;;;;;;6193439;28;20080;-78
2023/04/07 11:34:36;;;;;;;7.68;4.47;;;14.10;88.30;;;;;;6194927;28;20050;-79
2023/04/07 11:37:38;;;;;;;9.40;4.72;;;14.30;89.00;;;;;;6195552;28;20050;-78
2023/04/07 11:40:40;;;;;;;9.55;4.65;;;14.10;89.20;;;;;;6197592;28;20380;-78
2023/04/07 11:43:42;;;;;;;9.10;4.20;;;14.10;89.30;;;;;;6197475;28;20484;-77
2023/04/07 11:46:54;;;;;;;6.13;4.13;;;14.10;89.90;;;;;;6196832;28;20050;-81
2023/04/07 11:49:57;;;;;;;10.00;4.25;;;14.00;89.30;;;;;;6195373;28;20078;-79
2023/04/07 11:52:59;;;;;;;7.38;4.38;;;13.90;89.70;;;;;;6187086;28;20058;-78
2023/04/07 11:56:03;;;;;;;7.68;3.97;;;13.80;89.40;;;;;;6194219;28;20555;-78
2023/04/07 11:59:05;;;;;;;7.32;3.90;;;13.60;90.10;;;;;;6195346;28;20050;-78
2023/04/07 12:02:08;;;;;;;6.75;3.92;;;13.60;89.50;;;;;;6189245;28;20466;-77
2023/04/07 12:05:10;;;;;;;6.35;3.50;;;13.60;89.10;;;;;;6191779;28;20047;-80
2023/04/07 12:08:14;;;;;;;7.70;3.17;;;13.40;89.10;;;;;;6195067;28;20042;-78
2023/04/07 12:11:17;;;;;;;4.50;1.73;;;13.40;88.80;;;;;;6195452;28;20380;-80
2023/04/07 12:14:19;;;;;;;4.38;1.48;;;13.30;86.70;;;;;;6195306;28;20137;-80
2023/04/07 12:17:25;;;;;;;5.63;1.58;;;13.20;84.30;;;;;;6196456;28;20061;-77
2023/04/07 12:20:27;;;;;;;5.80;2.33;;;12.90;85.20;;;;;;6179262;28;20488;-79
2023/04/07 12:23:29;;;;;;;3.47;1.00;;;12.90;84.00;;;;;;6194816;28;20073;-77
2023/04/07 12:26:31;;;;;;;2.47;0.90;;;12.90;85.00;;;;;;6194546;28;20077;-79
2023/04/07 12:29:37;;;;;;;2.65;0.95;;;12.50;86.20;;;;;;6196146;28;20050;-76
2023/04/07 12:32:40;;;;;;;3.25;1.20;;;12.50;87.30;;;;;;6186826;28;20050;-77
2023/04/07 12:35:42;;;;;;;3.95;1.10;;;12.50;88.80;;;;;;6195549;28;20123;-80
2023/04/07 12:38:44;;;;;;;4.43;1.50;;;12.40;90.00;;;;;;6196267;28;20488;-77
2023/04/07 12:41:47;;;;;;;4.55;1.75;;;12.30;90.50;;;;;;6195100;28;20576;-77
2023/04/07 12:44:49;;;;;;;4.50;2.10;;;12.30;91.60;;;;;;6193371;28;20065;-77
2023/04/07 12:47:52;;;;;;;7.60;2.83;;;12.30;92.10;;;;;;6192350;28;20053;-77
2023/04/07 12:50:54;;;;;;;4.57;2.10;;;12.40;92.60;;;;;;6186553;28;20051;-76
2023/04/07 12:53:56;;;;;;;5.43;1.50;;;12.30;92.00;;;;;;6195592;28;20539;-79
2023/04/07 12:56:58;;;;;;;3.83;1.70;;;12.30;93.30;;;;;;6195383;28;20064;-79
2023/04/07 13:00:00;;;;;;;4.40;1.90;;;12.30;94.30;;;;;;6193028;28;20054;-79
2023/04/07 13:03:03;;;;;;;4.47;2.10;;;12.20;94.60;;;;;;6193693;28;20054;-79
2023/04/07 13:06:05;;;;;;;5.30;2.55;;;12.00;95.50;;;;;;6196138;28;20058;-78
2023/04/07 13:09:07;;;;;;;6.00;2.90;;;12.20;95.50;;;;;;6196681;28;20057;-78
2023/04/07 13:12:11;;;;;;;4.75;2.88;;;12.20;94.90;;;;;;6176977;28;20137;-79
2023/04/07 13:15:13;;;;;;;7.10;3.20;;;12.30;95.30;;;;;;6171135;28;20504;-77
2023/04/07 13:18:16;;;;;;;5.63;2.90;;;12.10;95.80;;;;;;6195365;28;20054;-78
2023/04/07 13:21:18;;;;;;;6.05;2.70;;;12.10;95.90;;;;;;6194282;28;20050;-77
2023/04/07 13:24:20;;;;;;;5.47;2.53;;;12.40;95.30;;;;;;6177115;28;20074;-79
2023/04/07 13:27:22;;;;;;;5.20;2.72;;;12.50;94.20;;;;;;6171268;28;20054;-79
2023/04/07 13:30:24;;;;;;;5.57;3.38;;;12.70;94.50;;;;;;6162771;28;20054;-77
2023/04/07 13:33:27;;;;;;;6.40;3.53;;;12.90;94.20;;;;;;6195197;28;20061;-79
2023/04/07 13:36:33;;;;;;;9.05;3.60;;;12.80;93.90;;;;;;6194614;28;20050;-77
2023/04/07 13:39:35;;;;;;;6.10;3.10;;;13.10;94.10;;;;;;6193868;28;20042;-76
2023/04/07 13:42:37;;;;;;;6.07;2.90;;;13.40;93.60;;;;;;6197638;28;20050;-80
2023/04/07 13:45:39;;;;;;;6.40;2.90;;;13.60;93.00;;;;;;6195338;28;20053;-77
2023/04/07 13:48:42;;;;;;;5.80;2.80;;;13.90;92.60;;;;;;6191848;28;20050;-80
2023/04/07 13:51:44;;;;;;;5.15;2.50;;;14.30;91.60;;;;;;6186862;28;20378;-78
2023/04/07 13:54:46;;;;;;;3.50;1.77;;;14.50;90.60;;;;;;6188432;28;20145;-80
2023/04/07 13:57:48;;;;;;;4.22;1.80;;;14.70;88.40;;;;;;6198954;28;20488;-78
2023/04/07 14:00:50;;;;;;;4.90;1.70;;;15.10;87.30;;;;;;6191465;28;20061;-77
2023/04/07 14:03:53;;;;;;;3.92;1.75;;;15.20;85.80;;;;;;6187533;28;20052;-79
2023/04/07 14:06:55;;;;;;;3.38;1.48;;;15.20;86.60;;;;;;6196256;28;20047;-78
2023/04/07 14:09:57;;;;;;;3.88;1.30;;;15.60;85.20;;;;;;6207569;28;20185;-77
2023/04/07 14:13:00;;;;;;;3.28;1.30;;;15.90;80.40;;;;;;6181170;28;20050;-78
2023/04/07 14:16:02;;;;;;;5.05;1.15;;;15.90;80.40;;;;;;6193010;28;20487;-80
2023/04/07 14:19:05;;;;;;;2.72;1.10;;;16.00;79.70;;;;;;6188546;28;20049;-79
2023/04/07 14:22:07;;;;;;;;;;;16.30;77.70;;;;;;6191308;28;20149;-77
2023/04/07 14:25:10;;;;;;;2.65;1.17;;;16.60;75.80;;;;;;6177753;28;20375;-77
2023/04/07 14:28:12;;;;;;;2.20;0.82;;;16.20;75.10;;;;;;6175147;28;20401;-77
2023/04/07 14:31:15;;;;;;;3.53;0.90;;;16.60;73.00;;;;;;6177683;28;20783;-80
2023/04/07 14:34:19;;;;;;;2.47;0.90;;;17.00;71.80;;;;;;6187272;28;20484;-79
2023/04/07 14:37:22;;;;;;;2.53;0.80;;;17.30;69.50;;;;;;6190247;28;20062;-78
2023/04/07 14:40:24;;;;;;;1.80;0.80;;;16.80;69.00;;;;;;6174104;28;20058;-79
2023/04/07 14:43:26;;;;;;;2.65;0.80;;;17.30;66.90;;;;;;6186270;28;20356;-80
2023/04/07 14:46:28;;;;;;;2.67;0.93;;;17.40;66.80;;;;;;6201690;28;20050;-78
2023/04/07 14:49:31;;;;;;;2.92;0.82;;;17.80;66.70;;;;;;6197494;28;20047;-77
2023/04/07 14:52:33;;;;;;;3.05;1.05;;;18.30;64.20;;;;;;6191690;28;20058;-73
2023/04/07 14:55:35;;;;;;;2.65;1.00;;;18.80;64.60;;;;;;6184538;28;20066;-73
2023/04/07 14:58:37;;;;;;;2.33;0.90;;;19.60;63.60;;;;;;6180274;28;20053;-74
2023/04/07 15:01:39;;;;;;;2.95;1.10;;;20.10;61.60;;;;;;6197306;28;20562;-74
2023/04/07 15:04:42;;;;;;;3.45;1.13;;;21.30;58.60;;;;;;6195776;28;20427;-76
2023/04/07 15:07:47;;;;;;;3.03;1.10;;;26.20;52.90;;;;;;6200784;28;20065;-77
2023/04/07 15:10:49;;;;;;;3.40;1.10;;;28.70;43.70;;;;;;6208614;28;20620;-77
2023/04/07 15:13:51;;;;;;;8.18;1.08;;;30.90;41.50;;;;;;6193976;28;20540;-74
2023/04/07 15:16:53;;;;;;;3.35;1.10;;;32.50;40.30;;;;;;6186840;28;20054;-72
2023/04/07 15:19:56;;;;;;;2.33;0.80;;;33.40;37.60;;;;;;6180240;28;20412;-72
2023/04/07 15:22:59;;;;;;;3.17;1.08;;;34.00;36.70;;;;;;6173257;28;20057;-72
2023/04/07 15:26:01;;;;;;;4.82;1.38;;;34.50;34.20;;;;;;6176242;28;20054;-77
2023/04/07 15:29:03;;;;;;;3.45;1.00;;;32.10;35.80;;;;;;6173684;28;20159;-78
2023/04/07 15:32:05;;;;;;;2.65;0.88;;;32.10;35.60;;;;;;6180934;28;20057;-80
2023/04/07 15:35:09;;;;;;;3.28;1.08;;;31.50;35.20;;;;;;6190681;28;20061;-78
2023/04/07 15:38:11;;;;;;;2.55;1.00;;;31.40;34.60;;;;;;6195776;28;20065;-81
2023/04/07 15:41:15;;;;;;;3.47;1.20;;;31.80;34.40;;;;;;6185630;28;20054;-78
2023/04/07 15:44:18;;;;;;;3.63;1.40;;;32.40;34.10;;;;;;6180504;28;20050;-78
2023/04/07 15:47:20;;;;;;;3.28;1.40;;;32.20;34.30;;;;;;6176719;28;20050;-79
2023/04/07 15:50:23;;;;;;;3.78;1.35;;;32.00;35.00;;;;;;6172649;28;20404;-77
2023/04/07 15:53:25;;;;;;;4.00;1.35;;;32.50;34.50;;;;;;6173131;28;20054;-80
2023/04/07 15:56:27;;;;;;;3.53;1.58;;;31.60;35.20;;;;;;6197201;28;20057;-79
2023/04/07 15:59:29;;;;;;;3.70;1.60;;;30.70;35.30;;;;;;6195090;28;20064;-79
2023/04/07 16:02:31;;;;;;;3.58;1.40;;;29.70;36.80;;;;;;6193109;28;20077;-76
2023/04/07 16:05:34;;;;;;;4.45;1.60;;;30.30;37.50;;;;;;6181200;28;20054;-75
2023/04/07 16:08:36;;;;;;;3.38;1.58;;;27.60;37.90;;;;;;6199864;28;20125;-78
2023/04/07 16:11:38;;;;;;;4.07;1.80;;;24.30;42.00;;;;;;6191656;28;20053;-83
2023/04/07 16:14:40;;;;;;;3.95;1.75;;;22.00;45.50;;;;;;6198447;28;20403;-79
2023/04/07 16:17:43;;;;;;;5.03;1.90;;;20.40;48.80;;;;;;6174823;28;20059;-79
2023/04/07 16:20:46;;;;;;;6.82;2.38;;;19.20;51.70;;;;;;6174032;28;20058;-81
2023/04/07 16:23:48;;;;;;;4.60;2.15;;;18.00;55.50;;;;;;6192282;28;20045;-77
2023/04/07 16:26:51;;;;;;;5.43;2.33;;;17.50;56.50;;;;;;6195473;28;20042;-80
2023/04/07 16:29:53;;;;;;;4.97;2.00;;;17.00;58.80;;;;;;6198466;28;20094;-78
2023/04/07 16:32:54;;;;;;;5.38;2.10;;;17.00;59.20;;;;;;6220000;28;20056;-80
2023/04/07 16:35:58;;;;;;;4.25;2.00;;;16.60;59.80;;;;;;6201213;28;20058;-80
2023/04/07 16:38:59;;;;;;;6.55;2.70;;;16.20;59.80;;;;;;6182584;28;20050;-78
2023/04/07 16:42:02;;;;;;;6.95;2.63;;;15.60;62.20;;;;;;6181894;28;20515;-77
2023/04/07 16:45:05;;;;;;;6.25;2.90;;;15.30;64.30;;;;;;6177668;28;20488;-77
2023/04/07 16:48:07;;;;;;;5.07;3.00;;;15.10;66.20;;;;;;6189296;28;20055;-79
2023/04/07 16:51:10;;;;;;;6.78;2.85;;;14.90;67.40;;;;;;6196960;28;20054;-81
2023/04/07 16:54:12;;;;;;;6.47;3.20;;;14.70;69.00;;;;;;6196775;28;20061;-79
2023/04/07 16:57:14;;;;;;;5.57;3.00;;;14.30;70.40;;;;;;6189518;28;20047;-77
2023/04/07 17:00:16;;;;;;;8.18;3.30;;;14.30;71.60;;;;;;6198342;28;20125;-80
2023/04/07 17:03:18;;;;;;;7.45;3.10;;;14.10;73.10;;;;;;6188375;28;20047;-78
2023/04/07 17:06:21;;;;;;;6.55;3.13;;;14.00;74.10;;;;;;6171466;28;20050;-78
2023/04/07 17:09:24;;;;;;;6.82;3.20;;;13.90;75.50;;;;;;6171476;28;20134;-78
2023/04/07 17:12:26;;;;;;;6.40;2.80;;;13.90;76.60;;;;;;6178760;28;20039;-77
2023/04/07 17:15:28;;;;;;;6.55;3.22;;;13.90;77.30;;;;;;6200729;28;20054;-79
2023/04/07 17:18:31;;;;;;;5.40;3.20;;;13.70;78.00;;;;;;6200620;28;20055;-78
2023/04/07 17:21:35;;;;;;;8.82;3.60;;;13.60;78.70;;;;;;6179810;28;20046;-77
2023/04/07 17:24:36;;;;;;;6.10;3.30;;;13.50;79.60;;;;;;6180481;28;20489;-77
2023/04/07 17:27:38;;;;;;;6.93;3.50;;;13.40;80.50;;;;;;6200644;28;20048;-77
2023/04/07 17:30:40;;;;;;;7.70;3.88;;;13.30;81.00;;;;;;6196266;28;20499;-78
2023/04/07 17:33:42;;;;;;;7.13;3.65;;;13.40;81.70;;;;;;6176024;28;20062;-79
2023/04/07 17:36:45;;;;;;;7.47;3.67;;;13.10;82.30;;;;;;6175745;28;20070;-78
2023/04/07 17:39:47;;;;;;;7.72;3.80;;;13.10;83.30;;;;;;6176736;28;20051;-77
2023/04/07 17:42:49;;;;;;;7.18;3.67;;;12.90;84.00;;;;;;6176531;28;20051;-79
2023/04/07 17:45:51;;;;;;;7.70;3.50;;;12.90;84.90;;;;;;6176061;28;20046;-79
2023/04/07 17:48:53;;;;;;;6.72;3.72;;;12.90;85.40;;;;;;6175997;28;20087;-78
2023/04/07 17:51:56;;;;;;;6.43;3.92;;;12.70;86.10;;;;;;6181186;28;20052;-78
2023/04/07 17:54:59;;;;;;;8.32;3.97;;;12.70;86.80;;;;;;6175685;28;20594;-76
2023/04/07 17:58:01;;;;;;;6.95;3.72;;;12.60;87.40;;;;;;6175121;28;20566;-78
2023/04/07 18:01:03;;;;;;;6.93;3.30;;;12.60;88.20;;;;;;6194769;28;20057;-79
2023/04/07 18:04:04;;;;;;;10.13;3.65;;;12.60;88.90;;;;;;6195390;28;20054;-79
2023/04/07 18:07:08;;;;;;;8.18;3.30;;;12.50;89.60;;;;;;6199527;28;20053;-76
2023/04/07 18:10:10;;;;;;;6.95;3.80;;;12.40;90.30;;;;;;6189399;28;20059;-79
2023/04/07 18:13:12;;;;;;;7.78;3.85;;;12.30;90.80;;;;;;6187050;28;20050;-78
2023/04/07 18:16:15;;;;;;;5.68;3.10;;;12.30;91.50;;;;;;6189135;28;20411;-79
2023/04/07 18:19:17;;;;;;;6.75;3.40;;;12.20;90.80;;;;;;6175760;28;20061;-79
2023/04/07 18:22:21;;;;;;;6.25;3.30;;;12.10;90.70;;;;;;6193146;28;20626;-78
2023/04/07 18:25:23;;;;;;;5.03;2.90;;;12.10;90.80;;;;;;6196989;28;20141;-77
2023/04/07 18:28:24;;;;;;;4.55;2.30;;;12.00;90.60;;;;;;6198481;28;20054;-77
2023/04/07 18:31:26;;;;;;;5.35;2.47;;;12.00;90.30;;;;;;6198163;28;20054;-79
2023/04/07 18:34:28;;;;;;;5.97;2.78;;;12.00;90.80;;;;;;6198263;28;20054;-76
2023/04/07 18:37:31;;;;;;;5.65;2.40;;;11.80;91.90;;;;;;6196998;28;20492;-78
2023/04/07 18:40:34;;;;;;;5.18;2.80;;;11.60;92.60;;;;;;6189761;28;20058;-79
2023/04/07 18:43:36;;;;;;;6.88;3.00;;;11.50;93.20;;;;;;6177227;28;20481;-77
2023/04/07 18:46:38;;;;;;;6.32;2.90;;;11.50;93.50;;;;;;6194395;28;20054;-80
2023/04/07 18:49:40;;;;;;;4.95;2.50;;;11.30;94.10;;;;;;6198398;28;20042;-80
2023/04/07 18:52:43;;;;;;;4.90;2.60;;;11.20;94.90;;;;;;6197853;28;20476;-79
2023/04/07 18:55:45;;;;;;;5.90;2.85;;;11.10;95.90;;;;;;6198045;28;20824;-78
2023/04/07 18:58:47;;;;;;;5.45;2.60;;;11.10;96.60;;;;;;6197421;28;20065;-80
2023/04/07 19:01:49;;;;;;;6.85;3.58;;;11.00;97.30;;;;;;6189619;28;20054;-79
2023/04/07 19:04:52;;;;;;;8.20;4.30;;;10.90;98.50;;;;;;6196583;28;20057;-78
2023/04/07 19:07:55;;;;;;;6.45;2.50;;;10.80;99.40;;;;;;6198305;28;20062;-78
2023/04/07 19:10:57;;;;;;;7.78;3.08;;;10.60;99.90;;;;;;6197842;28;20050;-78
2023/04/07 19:13:59;;;;;;;5.00;2.78;;;10.40;99.90;;;;;;6197826;28;20046;-79
2023/04/07 19:17:01;;;;;;;4.85;2.08;;;10.40;99.90;;;;;;6196841;28;20046;-79
2023/04/07 19:20:04;;;;;;;5.20;2.20;;;10.30;99.90;;;;;;6196741;28;20073;-78
2023/04/07 19:23:07;;;;;;;5.93;2.27;;;10.30;99.90;;;;;;6196788;28;20050;-77
2023/04/07 19:26:10;;;;;;;;;;;10.30;99.90;;;;;;6197577;28;20488;-78
2023/04/07 19:29:12;;;;;;;4.38;2.00;;;10.30;99.90;;;;;;6189266;28;19921;-77
2023/04/07 19:32:15;;;;;;;4.28;2.20;;;10.40;99.90;;;;;;6172972;28;20054;-77
2023/04/07 19:35:18;;;;;;;4.67;2.80;;;10.50;99.90;;;;;;6183841;28;20515;-79
2023/04/07 19:38:21;;;;;;;7.38;2.70;;;10.50;99.90;;;;;;6197327;28;20331;-79
2023/04/07 19:41:24;;;;;;;5.75;2.80;;;10.60;99.90;;;;;;6196926;28;20054;-76
2023/04/07 19:44:27;;;;;;;4.13;2.50;;;10.60;99.90;;;;;;6185569;28;20051;-77
2023/04/07 19:47:29;;;;;;;5.37;3.03;;;10.50;99.90;;;;;;6172648;28;20086;-77
2023/04/07 19:50:31;;;;;;;7.85;3.40;;;10.50;99.90;;;;;;6174574;28;20397;-78
2023/04/07 19:53:35;;;;;;;6.13;3.70;;;10.50;99.90;;;;;;6184549;28;20065;-79
2023/04/07 19:56:38;;;;;;;6.40;3.60;;;10.50;99.90;;;;;;6194742;28;20053;-78
2023/04/07 19:59:40;;;;;;;6.38;3.10;;;10.50;99.90;;;;;;6196055;28;20046;-79
2023/04/07 20:02:42;;;;;;;7.30;3.00;;;10.60;99.90;;;;;;6198874;28;20483;-80
2023/04/07 20:05:44;;;;;;;5.25;3.22;;;10.70;99.90;;;;;;6197206;28;20496;-79
2023/04/07 20:08:47;;;;;;;7.00;3.70;;;10.50;99.90;;;;;;6196902;28;20042;-78
2023/04/07 20:11:50;;;;;;;6.30;2.92;;;10.40;99.90;;;;;;6196109;28;20050;-76
2023/04/07 20:14:52;;;;;;;6.63;2.72;;;10.30;99.90;;;;;;6190630;28;20039;-78
2023/04/07 20:17:53;;;;;;;5.78;2.70;;;10.40;99.90;;;;;;6196413;28;20054;-78
2023/04/07 20:20:59;;;;;;;5.85;2.97;;;10.40;99.90;;;;;;6195612;28;20050;-79
2023/04/07 20:24:03;;;;;;;6.22;2.90;;;10.30;99.90;;;;;;6194678;28;20042;-79
2023/04/07 20:27:05;;;;;;;6.20;2.80;;;10.40;99.90;;;;;;6195128;28;20054;-78
2023/04/07 20:30:08;;;;;;;5.68;2.50;;;10.40;99.90;;;;;;6195915;28;20050;-75
2023/04/07 20:33:09;;;;;;;5.38;2.28;;;10.40;99.90;;;;;;6195892;28;20058;-77
2023/04/07 20:36:11;;;;;;;4.28;2.45;;;10.50;99.90;;;;;;6196338;28;20046;-79
2023/04/07 20:39:15;;;;;;;4.32;2.47;;;10.50;99.90;;;;;;6194713;28;20067;-79
2023/04/07 20:42:17;;;;;;;3.90;2.25;;;10.50;99.90;;;;;;6194915;28;20444;-78
2023/04/07 20:45:20;;;;;;;5.63;2.85;;;10.50;99.90;;;;;;6183578;28;20042;-79
2023/04/07 20:48:23;;;;;;;5.28;2.13;;;10.50;99.90;;;;;;6176475;28;20057;-78
2023/04/07 20:51:24;;;;;;;4.47;2.47;;;10.50;99.90;;;;;;6195581;28;20415;-79
2023/04/07 20:54:28;;;;;;;4.20;2.30;;;10.50;99.90;;;;;;6194950;28;20579;-77
2023/04/07 20:57:30;;;;;;;;;;;10.40;99.90;;;;;;6196153;28;20113;-79
2023/04/07 21:00:32;;;;;;;4.82;2.60;;;10.50;99.90;;;;;;6187646;28;19922;-80
2023/04/07 21:03:35;;;;;;;4.70;2.55;;;10.50;99.90;;;;;;6184611;28;20055;-77
2023/04/07 21:06:36;;;;;;;5.68;2.63;;;10.50;99.90;;;;;;6171699;28;20054;-76
2023/04/07 21:09:40;;;;;;;6.07;3.55;;;10.50;99.90;;;;;;6171440;28;20062;-79
2023/04/07 21:12:42;;;;;;;6.70;3.50;;;10.40;99.90;;;;;;6172001;28;20094;-76
2023/04/07 21:15:43;;;;;;;5.82;3.70;;;10.40;99.90;;;;;;6189987;28;20507;-77
2023/04/07 21:18:45;;;;;;;6.65;3.50;;;10.40;99.90;;;;;;6194200;28;20061;-78
2023/04/07 21:21:47;;;;;;;6.22;3.80;;;10.40;99.90;;;;;;6194991;28;20424;-78
2023/04/07 21:24:52;;;;;;;5.60;3.65;;;10.40;99.90;;;;;;6195620;28;20053;-76
2023/04/07 21:27:55;;;;;;;7.75;4.60;;;10.40;99.90;;;;;;6192157;28;20049;-77
2023/04/07 21:30:58;;;;;;;6.13;3.83;;;10.40;99.90;;;;;;6178039;28;20051;-77
2023/04/07 21:33:59;;;;;;;5.13;3.60;;;10.40;99.90;;;;;;6182090;28;20408;-77
2023/04/07 21:37:01;;;;;;;6.22;3.60;;;10.20;99.90;;;;;;6198387;28;20048;-78
2023/04/07 21:40:06;;;;;;;5.80;3.60;;;10.30;99.90;;;;;;6198462;28;20496;-76
2023/04/07 21:43:08;;;;;;;6.28;3.70;;;10.30;99.90;;;;;;6187740;28;20054;-77
2023/04/07 21:46:10;;;;;;;5.80;3.55;;;10.40;99.90;;;;;;6176459;28;20047;-79